Latest Coastal Weather Observations for Rhyll

IDV60701

Issued at 9:41 am EST Sunday 19 April 2015 (issued every 10 minutes, with the page automatically refreshed every 10 minutes)

About coastal observations | Map of coastal stations | Coastal observations for VIC | Marine services | Other Formats
Station Details ID: 086373 Name: RHYLL Lat: -38.46 Lon: 145.31 Height: 13.4 m
Data from the previous 72 hours. | See also: Recent months at Rhyll
Date/Time
EST
Temp

°C
Wind Pressure Rain
since 9am
mm
Weather Cloud Vis
km
Sea
Height
m
Swell
Dir
 
Speed
knots
Gust
knots
hPa Trend Height
m
Period
s
Dir
19/09:30am 9.2 S 15 27 1026.3 - 2.0 - - - - - - -
19/09:00am 8.7 SSW 16 27 1026.0 - 8.4 Rain - - - - - -
19/08:58am 9.3 SSW 15 27 1025.8 - 7.6 - - - - - - -
19/08:30am 11.9 S 9 16 1024.8 - 6.4 - - - - - - -
19/08:17am 11.8 SSW 15 27 1024.5 - 6.4 - - - - - - -
19/08:00am 12.2 SSW 13 22 1024.0 - 6.4 - - - - - - -
19/07:30am 12.2 SSW 13 24 1023.2 - 6.4 - - - - - - -
19/07:00am 10.3 SSW 8 15 1022.7 - 6.4 - - - - - - -
19/06:47am 10.9 S 15 27 1022.5 - 6.2 - - - - - - -
19/06:30am 11.4 SSW 10 17 1021.9 - 6.2 - - - - - - -
19/06:00am 10.0 S 14 26 1021.5 - 6.2 Rain - - - - - -
19/05:30am 12.2 SSW 10 19 1020.8 - 5.6 - - - - - - -
19/05:00am 12.3 SSW 13 20 1020.0 - 5.6 - - - - - - -
19/04:30am 11.6 SW 13 21 1019.7 - 5.6 - - - - - - -
19/04:00am 11.9 WSW 6 9 1019.1 - 5.6 - - - - - - -
19/03:30am 12.4 SW 12 18 1018.8 - 5.6 - - - - - - -
19/03:00am 12.1 SW 9 16 1018.4 - 5.6 Recent precip. - - - - - -
19/02:30am 12.1 SW 8 15 1018.3 - 5.4 - - - - - - -
19/02:00am 11.4 WSW 7 13 1018.1 - 5.4 - - - - - - -
19/01:30am 12.5 WSW 8 13 1018.1 - 4.8 - - - - - - -
19/01:00am 11.6 SW 12 22 1017.9 - 4.8 - - - - - - -
19/12:30am 12.6 WSW 6 9 1017.4 - 4.8 - - - - - - -
19/12:00am 12.8 WSW 7 11 1017.2 - 4.8 - - - - - - -
 
Date/Time
EST
Temp

°C
Wind Pressure Rain
since 9am
mm
Weather Cloud Vis
km
Sea
Height
m
Swell
Dir
 
Speed
knots
Gust
knots
hPa Trend Height
m
Period
s
Dir
18/11:30pm 12.0 W 4 8 1017.1 - 4.8 - - - - - - -
18/11:00pm 11.4 WNW 4 7 1016.9 - 4.8 - - - - - - -
18/10:30pm 11.8 WNW 4 8 1017.0 - 4.8 - - - - - - -
18/10:00pm 11.7 WNW 4 6 1016.7 - 3.2 - - - - - - -
18/09:30pm 11.6 NW 2 3 1016.3 - 2.6 - - - - - - -
18/09:00pm 11.1 WNW 3 8 1015.8 - 2.4 Recent precip. - - - - - -
18/08:30pm 10.8 WSW 6 10 1015.6 - 2.0 - - - - - - -
18/08:00pm 11.3 WSW 8 17 1015.1 - 1.2 - - - - - - -
18/07:30pm 12.1 WSW 10 21 1014.4 - 0.4 - - - - - - -
18/07:00pm 12.1 SW 12 23 1013.7 - 0.0 - - - - - - -
18/06:30pm 13.8 SW 11 19 1012.9 - 0.0 - - - - - - -
18/06:03pm 14.1 SW 15 26 1012.4 - 0.0 - - - - - - -
18/06:00pm 14.1 SW 15 24 1012.4 - 0.0 - - - - - - -
18/05:30pm 15.2 WSW 10 29 1011.4 - 0.0 - - - - - - -
18/05:28pm 16.1 W 7 29 1011.2 - 0.0 - - - - - - -
18/05:00pm 18.2 NNW 5 9 1010.1 - 0.0 - - - - - - -
18/04:30pm 18.1 NNW 9 12 1010.0 - 0.0 - - - - - - -
18/04:00pm 18.1 NNW 10 12 1010.1 - 0.0 - - - - - - -
18/03:30pm 18.0 NNW 9 14 1010.1 - 0.0 - - - - - - -
18/03:00pm 17.7 NNW 13 15 1010.5 - 0.0 - - - - - - -
18/02:30pm 18.2 NNW 8 12 1010.7 - 0.0 - - - - - - -
18/02:00pm 17.3 NNW 8 14 1011.1 - 0.0 - - - - - - -
18/01:30pm 17.4 NW 6 11 1011.4 - 0.0 - - - - - - -
18/01:00pm 16.9 WNW 5 13 1011.5 - 0.0 - - - - - - -
18/12:30pm 16.5 WNW 7 13 1012.3 - 0.0 - - - - - - -
18/12:00pm 16.0 WNW 6 11 1012.6 - 0.0 - - - - - - -
18/11:30am 15.1 WNW 5 11 1013.1 - 0.0 - - - - - - -
18/11:00am 14.8 WNW 6 11 1013.3 - 0.0 - - - - - - -
18/10:30am 15.4 W 6 13 1013.4 - 0.0 - - - - - - -
18/10:00am 14.9 NW 5 11 1013.4 - 0.0 - - - - - - -
18/09:30am 14.9 NW 6 10 1013.5 - 0.0 - - - - - - -
18/09:00am 14.7 WNW 2 6 1013.4 - 5.4 - - - - - - -
18/08:30am 14.0 W 4 8 1013.4 - 5.4 - - - - - - -
18/08:00am 13.8 W 4 8 1013.3 - 5.4 - - - - - - -
18/07:30am 13.7 W 4 8 1012.9 - 5.4 - - - - - - -
18/07:00am 13.7 WNW 3 6 1012.5 - 5.4 - - - - - - -
18/06:30am 13.5 WNW 4 7 1012.4 - 5.4 - - - - - - -
18/06:00am 13.4 WNW 2 5 1012.1 - 5.4 - - - - - - -
18/05:30am 13.4 WNW 3 8 1012.3 - 5.4 - - - - - - -
18/05:00am 13.5 NW 6 11 1012.3 - 5.4 - - - - - - -
18/04:30am 13.7 NW 2 5 1012.0 - 5.4 - - - - - - -
18/04:00am 13.9 NNW 4 7 1011.9 - 5.2 - - - - - - -
18/03:30am 13.8 NW 2 3 1012.0 - 5.2 - - - - - - -
18/03:00am 13.4 CALM 0 0 1012.4 - 5.2 Recent precip. - - - - - -
18/02:30am 13.4 CALM 0 0 1012.4 - 5.2 - - - - - - -
18/02:00am 13.3 CALM 0 0 1012.7 - 4.8 - - - - - - -
18/01:30am 13.2 CALM 0 0 1013.2 - 4.6 - - - - - - -
18/01:00am 13.1 WNW 1 3 1013.6 - 4.2 - - - - - - -
18/12:30am 13.2 WNW 1 3 1013.8 - 3.8 - - - - - - -
18/12:00am 13.1 NNW 2 5 1014.3 - 3.0 Rain - - - - - -
 
Date/Time
EST
Temp

°C
Wind Pressure Rain
since 9am
mm
Weather Cloud Vis
km
Sea
Height
m
Swell
Dir
 
Speed
knots
Gust
knots
hPa Trend Height
m
Period
s
Dir
17/11:30pm 13.0 N 3 5 1014.5 - 2.6 - - - - - - -
17/11:00pm 13.0 N 5 7 1015.0 - 2.2 - - - - - - -
17/10:30pm 12.9 N 3 5 1015.3 - 2.2 - - - - - - -
17/10:00pm 13.1 NNW 5 8 1015.8 - 1.4 - - - - - - -
17/09:30pm 13.8 N 4 7 1015.7 - 1.4 - - - - - - -
17/09:00pm 13.8 N 2 4 1015.8 - 1.2 - - - - - - -
17/08:30pm 13.4 NNE 5 8 1016.0 - 1.2 - - - - - - -
17/08:00pm 13.6 N 4 7 1016.4 - 1.2 - - - - - - -
17/07:30pm 13.6 N 3 5 1016.7 - 1.2 - - - - - - -
17/07:00pm 13.6 N 5 7 1016.6 - 1.2 - - - - - - -
17/06:30pm 13.6 NNE 4 6 1016.6 - 1.2 - - - - - - -
17/06:00pm 13.7 NW 1 3 1016.6 - 1.0 Recent precip. - - - - - -
17/05:30pm 14.3 WNW 3 6 1018.0 - 0.6 - - - - - - -
17/05:00pm 14.7 CALM 0 0 1017.3 - 0.2 - - - - - - -
17/04:30pm 15.6 CALM 0 0 1017.7 - 0.0 - - - - - - -
17/04:00pm 15.8 NW 1 2 1017.9 - 0.0 - - - - - - -
17/03:30pm 15.8 W 1 3 1017.9 - 0.0 - - - - - - -
17/03:00pm 16.2 NNW 2 3 1018.1 - 0.0 - - - - - - -
17/02:30pm 16.8 NE 2 3 1018.4 - 0.0 - - - - - - -
17/02:00pm 16.8 NE 2 3 1018.6 - 0.0 - - - - - - -
17/01:30pm 17.6 ENE 3 4 1018.9 - 0.0 - - - - - - -
17/01:00pm 18.0 ENE 5 6 1019.4 - 0.0 - - - - - - -
17/12:30pm 16.9 NNE 2 3 1020.5 - 0.0 - - - - - - -
17/12:00pm 18.5 NE 5 6 1021.3 - 0.0 - - - - - - -
17/11:30am 18.4 NE 6 7 1022.1 - 0.0 - - - - - - -
17/11:00am 17.3 ENE 6 7 1022.7 - 0.0 - - - - - - -
17/10:30am 16.3 NE 6 8 1023.3 - 0.0 - - - - - - -
17/10:00am 15.8 NE 7 9 1023.9 - 0.0 - - - - - - -
17/09:30am 14.7 ENE 6 7 1024.2 - 0.0 - - - - - - -
17/09:00am 14.2 ENE 3 5 1024.4 - 0.2 - - - - - - -
17/08:30am 13.6 NE 2 2 1024.7 - 0.2 - - - - - - -
17/08:00am 13.0 NE 3 4 1024.3 - 0.2 - - - - - - -
17/07:30am 12.2 NNE 3 4 1024.0 - 0.2 - - - - - - -
17/07:00am 11.7 NE 3 5 1023.7 - 0.2 - - - - - - -
17/06:30am 11.9 NE 5 6 1023.7 - 0.2 - - - - - - -
17/06:00am 11.0 NE 3 5 1023.8 - 0.2 - - - - - - -
17/05:30am 11.1 NE 2 3 1023.7 - 0.2 - - - - - - -
17/05:00am 11.8 NNE 2 3 1023.7 - 0.2 - - - - - - -
17/04:30am 11.7 NNE 3 5 1023.7 - 0.2 - - - - - - -
17/04:00am 11.6 NE 2 4 1023.2 - 0.2 - - - - - - -
17/03:30am 11.9 NE 3 3 1023.5 - 0.2 - - - - - - -
17/03:00am 12.4 NE 2 4 1023.5 - 0.2 - - - - - - -
17/02:30am 12.6 NE 5 7 1023.8 - 0.2 - - - - - - -
17/02:00am 13.1 NE 6 8 1024.3 - 0.2 - - - - - - -
17/01:30am 12.6 WNW 1 2 1024.9 - 0.2 - - - - - - -
17/01:00am 12.6 W 2 3 1025.4 - 0.2 - - - - - - -
17/12:30am 12.3 WSW 2 3 1025.7 - 0.2 - - - - - - -
17/12:00am 12.9 W 2 3 1025.9 - 0.2 - - - - - - -
 
Date/Time
EST
Temp

°C
Wind Pressure Rain
since 9am
mm
Weather Cloud Vis
km
Sea
Height
m
Swell
Dir
 
Speed
knots
Gust
knots
hPa Trend Height
m
Period
s
Dir
16/11:30pm 12.9 WSW 2 3 1026.2 - 0.2 - - - - - - -
16/11:00pm 12.9 WSW 2 3 1026.2 - 0.2 - - - - - - -
16/10:30pm 13.4 SW 3 5 1026.3 - 0.2 - - - - - - -
16/10:00pm 13.4 WSW 3 5 1026.5 - 0.2 - - - - - - -
16/09:30pm 13.4 WSW 3 4 1026.3 - 0.2 - - - - - - -
16/09:00pm 13.2 WSW 3 4 1026.4 - 0.2 - - - - - - -
16/08:30pm 13.7 SW 3 5 1026.5 - 0.2 - - - - - - -
16/08:00pm 13.5 WSW 3 4 1026.2 - 0.2 - - - - - - -
16/07:30pm 13.4 WSW 2 3 1025.7 - 0.2 - - - - - - -
16/07:00pm 13.4 SW 3 3 1025.6 - 0.2 - - - - - - -
16/06:30pm 13.6 SW 3 6 1025.5 - 0.2 - - - - - - -
16/06:00pm 13.8 SW 4 6 1025.2 - 0.2 - - - - - - -
16/05:30pm 14.1 SW 5 8 1025.2 - 0.2 - - - - - - -
16/05:00pm 14.4 SSW 4 7 1025.2 - 0.2 - - - - - - -
16/04:30pm 14.9 SSW 5 10 1025.1 - 0.2 - - - - - - -
16/04:00pm 15.2 SW 5 10 1025.0 - 0.2 - - - - - - -
16/03:30pm 15.5 SSW 6 11 1024.8 - 0.2 - - - - - - -
16/03:00pm 16.0 SSW 6 15 1024.8 - 0.2 Recent precip. - - - - - -
16/02:30pm 16.5 WSW 9 17 1024.6 - 0.2 - - - - - - -
16/02:00pm 16.9 SW 6 12 1024.4 - 0.0 - - - - - - -
16/01:30pm 16.1 SW 9 15 1024.7 - 0.0 - - - - - - -
16/01:00pm 17.3 SW 7 12 1024.8 - 0.0 - - - - - - -
16/12:30pm 17.1 SW 8 13 1025.0 - 0.0 - - - - - - -
16/12:00pm 16.7 SW 9 13 1025.0 - 0.0 - - - - - - -
16/11:30am 16.6 SW 9 15 1025.2 - 0.0 - - - - - - -
16/11:00am 16.5 SW 10 16 1025.3 - 0.0 - - - - - - -
16/10:30am 16.5 SW 9 16 1025.2 - 0.0 - - - - - - -
16/10:00am 17.0 SW 10 18 1024.9 - 0.0 - - - - - - -

Other Formats:

Comma delimited format used in spreadsheet applications
http://www.bom.gov.au/fwo/IDV60701/IDV60701.94892.axf

JavaScript Object Notation format (JSON) in row-major order
http://www.bom.gov.au/fwo/IDV60701/IDV60701.94892.json